Time;durP1;ratioP1;P1;durP2;ratioP2;P2;SDS_P1;SDS_P2;PMS_P1;PMS_P2;Temp;Humidity;BMP_temperature;BMP_pressure;BME280_temperature;BME280_humidity;BME280_pressure;Samples;Min_cycle;Max_cycle;Signal;HPM_P1;HPM_P2
2021/01/14 00:04:06;;;;;;;10.85;9.00;;;;;;;;;;4917819;28;20142;31
2021/01/14 00:06:32;;;;;;;10.05;7.82;;;;;;;;;;4133868;34;20106;-57
2021/01/14 00:08:58;;;;;;;11.65;8.98;;;;;;;;;;4136418;34;20130;-57
2021/01/14 00:11:24;;;;;;;13.48;8.88;;;;;;;;;;4150108;34;20103;-56
2021/01/14 00:13:50;;;;;;;11.32;9.13;;;;;;;;;;4143329;34;20210;-58
2021/01/14 00:16:16;;;;;;;11.30;9.35;;;;;;;;;;4136378;34;20104;-58
2021/01/14 00:18:42;;;;;;;11.52;9.00;;;;;;;;;;4136355;34;20635;-58
2021/01/14 00:21:08;;;;;;;10.73;8.80;;;;;;;;;;4136496;34;20487;-57
2021/01/14 00:23:34;;;;;;;11.77;9.13;;;;;;;;;;4149506;34;20123;-57
2021/01/14 00:25:59;;;;;;;10.65;8.68;;;;;;;;;;4149824;34;20186;-57
2021/01/14 00:28:25;;;;;;;9.48;8.40;;;;;;;;;;4150077;34;20103;-57
2021/01/14 00:30:51;;;;;;;11.75;9.10;;;;;;;;;;4149549;34;20107;-57
2021/01/14 00:33:17;;;;;;;10.57;9.13;;;;;;;;;;4149949;34;20130;-58
2021/01/14 00:35:43;;;;;;;10.75;8.40;;;;;;;;;;4149687;34;20154;-58
2021/01/14 00:38:09;;;;;;;11.10;9.07;;;;;;;;;;4151749;34;20146;-59
2021/01/14 00:40:35;;;;;;;10.20;8.70;;;;;;;;;;4115234;34;20445;-58
2021/01/14 00:43:01;;;;;;;10.40;8.43;;;;;;;;;;4138235;34;20104;-56
2021/01/14 00:45:27;;;;;;;10.60;8.25;;;;;;;;;;4138213;34;20126;-56
2021/01/14 00:47:53;;;;;;;10.57;8.00;;;;;;;;;;4125764;34;20196;-56
2021/01/14 00:50:19;;;;;;;9.32;8.23;;;;;;;;;;4138022;34;20190;-56
2021/01/14 00:52:45;;;;;;;9.98;8.05;;;;;;;;;;4138156;34;20123;-56
2021/01/14 00:55:16;;;;;;;11.05;8.43;;;;;;;;;;4138033;34;20231;-57
2021/01/14 00:57:42;;;;;;;9.60;8.60;;;;;;;;;;4126063;34;20196;-58
2021/01/14 01:00:10;;;;;;;10.15;9.05;;;;;;;;;;4138153;34;20139;-57
2021/01/14 01:02:47;;;;;;;10.73;8.20;;;;;;;;;;4138449;34;20458;-58
2021/01/14 01:05:28;;;;;;;11.40;8.70;;;;;;;;;;4153721;34;20449;-49
2021/01/14 01:07:59;;;;;;;10.07;8.75;;;;;;;;;;4152949;34;20094;-49
2021/01/14 01:10:25;;;;;;;11.18;9.32;;;;;;;;;;4165109;34;20208;-50
2021/01/14 01:12:55;;;;;;;8.68;7.53;;;;;;;;;;4159848;34;20122;-52
2021/01/14 01:15:21;;;;;;;9.45;8.13;;;;;;;;;;4151424;34;20103;-49
2021/01/14 01:17:47;;;;;;;9.77;8.63;;;;;;;;;;4151440;34;20190;-49
2021/01/14 01:20:13;;;;;;;10.18;8.35;;;;;;;;;;4151591;34;20131;-46
2021/01/14 01:22:39;;;;;;;14.93;8.73;;;;;;;;;;4163491;34;20095;-49
2021/01/14 01:25:05;;;;;;;10.80;8.05;;;;;;;;;;4164705;34;20118;-49
2021/01/14 01:27:31;;;;;;;20.77;10.48;;;;;;;;;;4164888;34;20106;-48
2021/01/14 01:29:57;;;;;;;17.48;10.15;;;;;;;;;;4164784;34;20518;-47
2021/01/14 01:32:23;;;;;;;18.55;10.85;;;;;;;;;;4164856;34;20448;-49
2021/01/14 01:34:49;;;;;;;17.10;9.90;;;;;;;;;;4164619;34;20542;-50
2021/01/14 01:37:15;;;;;;;18.40;9.77;;;;;;;;;;4165097;34;20114;-48
2021/01/14 01:39:41;;;;;;;16.20;8.55;;;;;;;;;;4153012;34;20173;-49
2021/01/14 01:42:06;;;;;;;10.45;7.87;;;;;;;;;;4151153;34;20130;-48
2021/01/14 01:44:32;;;;;;;9.38;7.53;;;;;;;;;;4151153;34;20620;-49
2021/01/14 01:47:03;;;;;;;11.48;7.62;;;;;;;;;;4151058;34;20455;-50
2021/01/14 01:49:29;;;;;;;10.63;7.85;;;;;;;;;;4150589;34;20207;-49
2021/01/14 01:52:01;;;;;;;10.15;7.28;;;;;;;;;;4138678;34;20120;-52
2021/01/14 01:54:27;;;;;;;8.95;7.10;;;;;;;;;;4128260;34;20103;-48
2021/01/14 01:56:55;;;;;;;9.80;7.35;;;;;;;;;;4151264;34;20118;-51
2021/01/14 01:59:22;;;;;;;8.38;7.47;;;;;;;;;;4151456;34;20478;-50
2021/01/14 02:01:51;;;;;;;9.05;7.45;;;;;;;;;;4150724;34;20107;-49
2021/01/14 02:04:19;;;;;;;9.45;7.82;;;;;;;;;;4164191;34;20138;-52
2021/01/14 02:06:57;;;;;;;8.68;7.72;;;;;;;;;;4164918;34;20110;-50
2021/01/14 02:09:25;;;;;;;14.90;7.68;;;;;;;;;;4152350;34;20186;-51
2021/01/14 02:11:59;;;;;;;11.25;7.20;;;;;;;;;;4164669;34;20123;-49
2021/01/14 02:14:26;;;;;;;8.77;6.82;;;;;;;;;;4152451;34;20095;-53
2021/01/14 02:16:53;;;;;;;9.02;6.80;;;;;;;;;;4152092;34;20205;-49
2021/01/14 02:19:22;;;;;;;10.48;8.85;;;;;;;;;;4151949;34;20108;-49
2021/01/14 02:21:57;;;;;;;10.05;8.05;;;;;;;;;;4164401;34;20118;-54
2021/01/14 02:24:29;;;;;;;8.95;7.53;;;;;;;;;;4152521;34;20518;-48
2021/01/14 02:26:55;;;;;;;8.20;6.80;;;;;;;;;;4141030;34;20118;-50
2021/01/14 02:29:21;;;;;;;9.10;7.93;;;;;;;;;;4151623;34;20543;-49
2021/01/14 02:31:46;;;;;;;8.75;7.05;;;;;;;;;;4164323;34;20222;-48
2021/01/14 02:34:12;;;;;;;10.32;8.25;;;;;;;;;;4164459;34;20126;-47
2021/01/14 02:36:38;;;;;;;9.82;7.65;;;;;;;;;;4164317;34;20527;-48
2021/01/14 02:39:04;;;;;;;10.15;7.68;;;;;;;;;;4164078;34;20125;-48
2021/01/14 02:41:30;;;;;;;8.40;7.45;;;;;;;;;;4164485;34;20444;-48
2021/01/14 02:43:56;;;;;;;9.82;7.25;;;;;;;;;;4164178;34;20253;-49
2021/01/14 02:46:22;;;;;;;8.32;6.80;;;;;;;;;;4164168;34;20126;-58
2021/01/14 02:48:57;;;;;;;9.55;7.50;;;;;;;;;;4151548;34;20129;-56
2021/01/14 02:51:44;;;;;;;9.77;7.43;;;;;;;;;;4152284;34;20461;-52
2021/01/14 02:54:10;;;;;;;8.88;7.32;;;;;;;;;;4156934;34;20204;-50
2021/01/14 02:56:37;;;;;;;8.70;6.87;;;;;;;;;;4151868;34;20182;-52
2021/01/14 02:59:04;;;;;;;13.55;8.35;;;;;;;;;;4163820;34;20474;-51
2021/01/14 03:01:29;;;;;;;23.83;7.90;;;;;;;;;;4164075;34;20095;-58
2021/01/14 03:03:55;;;;;;;9.32;7.30;;;;;;;;;;4163905;34;20111;-57
2021/01/14 03:06:21;;;;;;;9.45;7.93;;;;;;;;;;4163805;34;20554;-58
2021/01/14 03:08:47;;;;;;;10.73;7.87;;;;;;;;;;4163972;34;20526;-60
2021/01/14 03:11:14;;;;;;;10.05;7.93;;;;;;;;;;4163974;34;20118;-60
2021/01/14 03:13:40;;;;;;;9.15;6.97;;;;;;;;;;4163919;34;20216;-59
2021/01/14 03:16:09;;;;;;;8.90;7.75;;;;;;;;;;4164187;34;20139;-62
2021/01/14 03:18:34;;;;;;;9.27;8.27;;;;;;;;;;4164008;34;20107;-51
2021/01/14 03:21:03;;;;;;;8.88;7.87;;;;;;;;;;4163955;34;20517;-58
2021/01/14 03:23:30;;;;;;;10.05;7.72;;;;;;;;;;4163845;34;20127;-57
2021/01/14 03:25:56;;;;;;;9.45;7.78;;;;;;;;;;4163953;34;20099;-59
2021/01/14 03:28:21;;;;;;;10.98;8.20;;;;;;;;;;4163937;34;20118;-59
2021/01/14 03:30:47;;;;;;;12.18;7.70;;;;;;;;;;4164073;34;20122;-59
2021/01/14 03:33:13;;;;;;;8.73;7.75;;;;;;;;;;4163906;34;20129;-59
2021/01/14 03:35:39;;;;;;;10.18;7.97;;;;;;;;;;4163864;34;20135;-60
2021/01/14 03:38:05;;;;;;;9.57;7.70;;;;;;;;;;4163964;34;20118;-54
2021/01/14 03:40:31;;;;;;;10.63;7.75;;;;;;;;;;4163982;34;20119;-58
2021/01/14 03:42:57;;;;;;;10.70;7.82;;;;;;;;;;4163751;34;20223;-56
2021/01/14 03:45:22;;;;;;;11.38;8.77;;;;;;;;;;4163717;34;20125;-54
2021/01/14 03:47:48;;;;;;;8.88;7.32;;;;;;;;;;4163648;34;20126;-59
2021/01/14 03:50:14;;;;;;;9.18;7.45;;;;;;;;;;4163600;34;20215;-53
2021/01/14 03:52:40;;;;;;;11.63;7.70;;;;;;;;;;4163587;34;20147;-58
2021/01/14 03:55:06;;;;;;;10.40;7.65;;;;;;;;;;4163488;34;20123;-58
2021/01/14 03:57:36;;;;;;;9.27;7.90;;;;;;;;;;4163615;34;20599;-58
2021/01/14 04:00:06;;;;;;;10.15;7.90;;;;;;;;;;4163594;34;20187;-59
2021/01/14 04:02:32;;;;;;;8.88;7.40;;;;;;;;;;4139592;34;20110;-59
2021/01/14 04:04:58;;;;;;;11.40;8.02;;;;;;;;;;4163355;34;20443;-59
2021/01/14 04:07:24;;;;;;;8.93;7.55;;;;;;;;;;4163486;34;20095;-58
2021/01/14 04:09:51;;;;;;;10.15;7.97;;;;;;;;;;4163430;34;20122;-59
2021/01/14 04:12:16;;;;;;;10.10;7.65;;;;;;;;;;4162877;34;20111;-59
2021/01/14 04:14:50;;;;;;;9.77;7.70;;;;;;;;;;4163328;34;20134;-59
2021/01/14 04:17:16;;;;;;;10.30;7.55;;;;;;;;;;4151605;34;20134;-59
2021/01/14 04:19:42;;;;;;;8.50;7.60;;;;;;;;;;4163181;34;20609;-58
2021/01/14 04:22:08;;;;;;;10.07;7.93;;;;;;;;;;4163160;34;20126;-58
2021/01/14 04:24:36;;;;;;;10.10;7.55;;;;;;;;;;4163307;34;20138;-59
2021/01/14 04:27:05;;;;;;;9.38;7.57;;;;;;;;;;4163540;34;20130;-59
2021/01/14 04:29:31;;;;;;;10.65;8.57;;;;;;;;;;4150749;34;20625;-57
2021/01/14 04:31:57;;;;;;;9.48;7.78;;;;;;;;;;4163406;34;20307;-58
2021/01/14 04:34:23;;;;;;;10.73;8.07;;;;;;;;;;4163323;34;20134;-58
2021/01/14 04:36:59;;;;;;;10.65;7.87;;;;;;;;;;4150792;34;20213;-58
2021/01/14 04:39:25;;;;;;;12.93;8.35;;;;;;;;;;4163050;34;20132;-57
2021/01/14 04:41:56;;;;;;;10.57;8.48;;;;;;;;;;4163128;34;20091;-57
2021/01/14 04:44:23;;;;;;;9.93;8.23;;;;;;;;;;4162989;34;20142;-58
2021/01/14 04:46:49;;;;;;;10.77;8.05;;;;;;;;;;4163108;34;20231;-58
2021/01/14 04:49:18;;;;;;;10.07;7.93;;;;;;;;;;4162880;34;20099;-57
2021/01/14 04:51:45;;;;;;;11.77;8.25;;;;;;;;;;4163052;34;20127;-58
2021/01/14 04:54:13;;;;;;;10.32;7.90;;;;;;;;;;4150273;34;20109;-58
2021/01/14 04:56:39;;;;;;;11.18;8.10;;;;;;;;;;4163270;34;20111;-57
2021/01/14 04:59:05;;;;;;;9.60;7.72;;;;;;;;;;4139163;34;20110;-58
2021/01/14 05:01:36;;;;;;;9.23;8.02;;;;;;;;;;4162817;34;20095;-57
2021/01/14 05:04:05;;;;;;;8.82;7.82;;;;;;;;;;4150368;34;20207;-57
2021/01/14 05:06:36;;;;;;;10.05;7.80;;;;;;;;;;4149549;34;20091;-57
2021/01/14 05:09:04;;;;;;;11.77;8.13;;;;;;;;;;4125583;34;20090;-57
2021/01/14 05:11:44;;;;;;;10.43;7.85;;;;;;;;;;4149368;34;20437;-57
2021/01/14 05:14:10;;;;;;;11.73;8.30;;;;;;;;;;4149151;34;20119;-58
2021/01/14 05:16:36;;;;;;;10.98;9.00;;;;;;;;;;4149298;34;20119;-57
2021/01/14 05:19:02;;;;;;;8.68;7.40;;;;;;;;;;4149187;34;20462;-58
2021/01/14 05:21:31;;;;;;;11.18;8.13;;;;;;;;;;4149220;34;20135;-57
2021/01/14 05:24:10;;;;;;;13.32;8.98;;;;;;;;;;4151302;34;20112;-57
2021/01/14 05:26:36;;;;;;;11.93;9.25;;;;;;;;;;4151425;34;20509;-57
2021/01/14 05:29:18;;;;;;;11.35;8.68;;;;;;;;;;4151115;34;20129;-57
2021/01/14 05:31:48;;;;;;;11.48;9.30;;;;;;;;;;4151365;34;20531;-58
2021/01/14 05:34:17;;;;;;;15.85;9.45;;;;;;;;;;4138667;34;20099;-57
2021/01/14 05:36:54;;;;;;;14.00;10.45;;;;;;;;;;4151328;34;20216;-58
2021/01/14 05:39:21;;;;;;;12.48;8.93;;;;;;;;;;4151198;34;20103;-57
2021/01/14 05:41:48;;;;;;;12.57;8.73;;;;;;;;;;4151433;34;20187;-57
2021/01/14 05:44:14;;;;;;;13.32;8.38;;;;;;;;;;4151293;34;20127;-58
2021/01/14 05:46:40;;;;;;;11.70;9.85;;;;;;;;;;4138692;34;20126;-58
2021/01/14 05:49:08;;;;;;;13.68;9.40;;;;;;;;;;4151191;34;20115;-58
2021/01/14 05:51:34;;;;;;;11.05;8.80;;;;;;;;;;4151134;34;20133;-58
2021/01/14 05:54:03;;;;;;;12.48;9.10;;;;;;;;;;4151129;34;20143;-57
2021/01/14 05:56:41;;;;;;;14.82;9.85;;;;;;;;;;4151108;34;20099;-57
2021/01/14 05:59:11;;;;;;;12.15;9.38;;;;;;;;;;4150933;34;20091;-58
2021/01/14 06:01:38;;;;;;;11.27;8.68;;;;;;;;;;4151140;34;20457;-57
2021/01/14 06:04:20;;;;;;;11.95;9.23;;;;;;;;;;4150821;34;20219;-57
2021/01/14 06:06:46;;;;;;;20.25;9.77;;;;;;;;;;4164702;34;20532;-57
2021/01/14 06:09:13;;;;;;;20.00;9.15;;;;;;;;;;4164610;34;20433;-58
2021/01/14 06:11:39;;;;;;;14.40;9.23;;;;;;;;;;4164480;34;20497;-58
2021/01/14 06:14:05;;;;;;;11.95;8.60;;;;;;;;;;4163115;34;20142;-57
2021/01/14 06:16:47;;;;;;;14.00;9.55;;;;;;;;;;4164608;34;20566;-58
2021/01/14 06:19:13;;;;;;;23.77;9.35;;;;;;;;;;4162934;34;20422;-57
2021/01/14 06:21:49;;;;;;;10.25;8.77;;;;;;;;;;4162770;34;20138;-57
2021/01/14 06:24:24;;;;;;;11.32;9.05;;;;;;;;;;4164146;34;20508;-58
2021/01/14 06:26:54;;;;;;;14.57;10.15;;;;;;;;;;4164176;34;20118;-58
2021/01/14 06:29:22;;;;;;;13.82;9.48;;;;;;;;;;4164299;34;20690;-56
2021/01/14 06:31:48;;;;;;;13.98;9.55;;;;;;;;;;4151516;34;20522;-57
2021/01/14 06:34:16;;;;;;;14.57;8.95;;;;;;;;;;4162279;34;20094;-56
2021/01/14 06:36:46;;;;;;;13.55;10.05;;;;;;;;;;4163001;34;20099;-57
2021/01/14 06:39:13;;;;;;;13.75;9.02;;;;;;;;;;4151297;34;20111;-56
2021/01/14 06:41:40;;;;;;;11.27;8.65;;;;;;;;;;4162738;34;20213;-56
2021/01/14 06:44:12;;;;;;;11.93;8.15;;;;;;;;;;4164168;34;20110;-56
2021/01/14 06:46:38;;;;;;;12.43;8.73;;;;;;;;;;4164270;34;20197;-57
2021/01/14 06:49:11;;;;;;;12.10;8.95;;;;;;;;;;4163902;34;20219;-57
2021/01/14 06:51:49;;;;;;;17.08;9.25;;;;;;;;;;4164182;34;20117;-57
2021/01/14 06:54:15;;;;;;;13.70;9.55;;;;;;;;;;4163869;34;20091;-57
2021/01/14 06:56:58;;;;;;;14.32;9.15;;;;;;;;;;4151412;34;20119;-58
2021/01/14 06:59:25;;;;;;;10.13;8.48;;;;;;;;;;4163900;34;20106;-57
2021/01/14 07:02:30;;;;;;;11.65;9.32;;;;;;;;;;4163783;34;20114;-57
2021/01/14 07:05:03;;;;;;;11.18;8.60;;;;;;;;;;4150870;34;20106;-57
2021/01/14 07:07:45;;;;;;;14.57;8.85;;;;;;;;;;4164160;34;20213;-58
2021/01/14 07:10:11;;;;;;;13.60;8.57;;;;;;;;;;4163952;34;20222;-58
2021/01/14 07:12:39;;;;;;;12.50;8.95;;;;;;;;;;4163890;34;20123;-58
2021/01/14 07:15:11;;;;;;;14.07;9.05;;;;;;;;;;4163721;34;20103;-57
2021/01/14 07:17:39;;;;;;;9.90;8.27;;;;;;;;;;4151235;34;20117;-58
2021/01/14 07:20:15;;;;;;;13.15;9.18;;;;;;;;;;4163625;34;20204;-58
2021/01/14 07:22:50;;;;;;;11.68;9.10;;;;;;;;;;4163827;34;20133;-58
2021/01/14 07:25:16;;;;;;;11.25;8.95;;;;;;;;;;4151154;34;20138;-58
2021/01/14 07:27:43;;;;;;;12.10;8.32;;;;;;;;;;4151259;34;20512;-57
2021/01/14 07:30:10;;;;;;;11.20;8.35;;;;;;;;;;4151119;34;20129;-58
2021/01/14 07:32:55;;;;;;;12.30;8.30;;;;;;;;;;4163981;34;20115;-57
2021/01/14 07:35:35;;;;;;;11.50;9.07;;;;;;;;;;4151197;34;20203;-57
2021/01/14 07:38:01;;;;;;;9.13;7.50;;;;;;;;;;4163594;34;20515;-57
2021/01/14 07:40:30;;;;;;;13.98;8.32;;;;;;;;;;4163514;34;20680;-57
2021/01/14 07:43:00;;;;;;;12.00;7.80;;;;;;;;;;4163609;34;20091;-57
2021/01/14 07:45:26;;;;;;;11.95;8.60;;;;;;;;;;4162999;34;20126;-57
2021/01/14 07:47:52;;;;;;;11.45;8.38;;;;;;;;;;4163663;34;20130;-58
2021/01/14 07:50:25;;;;;;;12.93;8.32;;;;;;;;;;4163592;34;20126;-59
2021/01/14 07:52:52;;;;;;;11.30;8.35;;;;;;;;;;4163800;34;20099;-58
2021/01/14 07:55:41;;;;;;;10.40;8.05;;;;;;;;;;4163675;34;20117;-58
2021/01/14 07:58:23;;;;;;;11.40;8.20;;;;;;;;;;4152330;34;20131;-59
2021/01/14 08:01:08;;;;;;;12.60;10.20;;;;;;;;;;4163323;34;20101;-58
2021/01/14 08:03:35;;;;;;;13.15;9.68;;;;;;;;;;4163638;34;20095;-58
2021/01/14 08:06:27;;;;;;;13.35;9.10;;;;;;;;;;4163166;34;20231;-59
2021/01/14 08:09:05;;;;;;;10.52;8.30;;;;;;;;;;4163482;34;20731;-58
2021/01/14 08:11:38;;;;;;;14.18;8.77;;;;;;;;;;4163424;34;20109;-58
2021/01/14 08:14:12;;;;;;;10.65;8.52;;;;;;;;;;4163107;34;20215;-60
2021/01/14 08:16:41;;;;;;;9.88;8.13;;;;;;;;;;4163413;34;20536;-58
2021/01/14 08:19:16;;;;;;;15.65;9.18;;;;;;;;;;4163005;34;20111;-59
2021/01/14 08:21:43;;;;;;;11.12;8.95;;;;;;;;;;4163139;34;20137;-59
2021/01/14 08:24:10;;;;;;;11.25;8.50;;;;;;;;;;4163004;34;20117;-58
2021/01/14 08:26:54;;;;;;;12.70;9.23;;;;;;;;;;4150634;34;20213;-58
2021/01/14 08:29:28;;;;;;;13.68;8.32;;;;;;;;;;4163233;34;20123;-58
2021/01/14 08:31:53;;;;;;;14.15;9.70;;;;;;;;;;4163112;34;20122;-58
2021/01/14 08:34:21;;;;;;;13.77;9.00;;;;;;;;;;4150275;34;20452;-58
2021/01/14 08:36:47;;;;;;;12.07;8.70;;;;;;;;;;4150671;34;20131;-58
2021/01/14 08:39:17;;;;;;;11.07;8.85;;;;;;;;;;4150289;34;20190;-59
2021/01/14 08:41:43;;;;;;;10.25;8.10;;;;;;;;;;4151007;34;20247;-58
2021/01/14 08:44:10;;;;;;;14.02;8.90;;;;;;;;;;4139345;34;20199;-59
2021/01/14 08:46:40;;;;;;;11.55;9.05;;;;;;;;;;4150426;34;20111;-58
2021/01/14 08:49:16;;;;;;;11.30;9.05;;;;;;;;;;4162722;34;20216;-59
2021/01/14 08:51:42;;;;;;;12.27;8.60;;;;;;;;;;4163042;34;20126;-58
2021/01/14 08:54:09;;;;;;;10.90;8.57;;;;;;;;;;4163030;34;20641;-58
2021/01/14 08:56:36;;;;;;;11.63;8.10;;;;;;;;;;4163024;34;20103;-59
2021/01/14 08:59:16;;;;;;;15.07;8.43;;;;;;;;;;4164981;34;20483;-58
2021/01/14 09:01:42;;;;;;;13.20;9.13;;;;;;;;;;4164969;34;20098;-57
2021/01/14 09:04:09;;;;;;;11.60;8.55;;;;;;;;;;4165012;34;20138;-58
2021/01/14 09:06:39;;;;;;;11.12;8.32;;;;;;;;;;4165180;34;20214;-58
2021/01/14 09:09:10;;;;;;;11.23;8.40;;;;;;;;;;4164909;34;20210;-58
2021/01/14 09:11:37;;;;;;;11.57;8.43;;;;;;;;;;4152743;34;20527;-57
2021/01/14 09:14:11;;;;;;;9.48;7.82;;;;;;;;;;4165096;34;20131;-57
2021/01/14 09:16:38;;;;;;;11.38;8.52;;;;;;;;;;4165209;34;20440;-58
2021/01/14 09:19:16;;;;;;;10.77;7.72;;;;;;;;;;4164761;34;20575;-59
2021/01/14 09:21:42;;;;;;;12.48;8.65;;;;;;;;;;4164871;34;20219;-59
2021/01/14 09:24:09;;;;;;;14.80;9.32;;;;;;;;;;4164781;34;20535;-58
2021/01/14 09:26:38;;;;;;;12.00;8.30;;;;;;;;;;4164852;34;20119;-57
2021/01/14 09:29:05;;;;;;;11.05;8.88;;;;;;;;;;4164618;34;20124;-57
2021/01/14 09:31:33;;;;;;;16.05;9.55;;;;;;;;;;4165030;34;20178;-58
2021/01/14 09:34:00;;;;;;;10.50;8.75;;;;;;;;;;4164740;34;20541;-58
2021/01/14 09:36:26;;;;;;;12.57;9.13;;;;;;;;;;4165106;34;20112;-58
2021/01/14 09:38:53;;;;;;;11.55;8.52;;;;;;;;;;4164658;34;20142;-61
2021/01/14 09:41:26;;;;;;;12.93;8.15;;;;;;;;;;4152343;34;20119;-55
2021/01/14 09:43:54;;;;;;;13.35;8.57;;;;;;;;;;4164656;34;20214;-57
2021/01/14 09:46:21;;;;;;;11.10;8.50;;;;;;;;;;4164941;34;20161;-58
2021/01/14 09:48:57;;;;;;;13.15;8.65;;;;;;;;;;4161799;34;20284;-57
2021/01/14 09:51:28;;;;;;;12.55;9.15;;;;;;;;;;4156836;34;20118;-58
2021/01/14 09:53:54;;;;;;;10.10;7.90;;;;;;;;;;4160956;34;20123;-58
2021/01/14 09:56:23;;;;;;;11.90;8.18;;;;;;;;;;4153026;34;20118;-58
2021/01/14 09:58:54;;;;;;;13.75;8.80;;;;;;;;;;4139953;34;20107;-59
2021/01/14 10:01:24;;;;;;;12.25;9.13;;;;;;;;;;4164387;34;20113;-58
2021/01/14 10:03:55;;;;;;;9.32;7.57;;;;;;;;;;4151900;34;20107;-57
2021/01/14 10:06:21;;;;;;;12.57;8.40;;;;;;;;;;4151933;34;20186;-58
2021/01/14 10:08:49;;;;;;;12.82;9.55;;;;;;;;;;4142058;34;20127;-58
2021/01/14 10:11:18;;;;;;;11.75;8.45;;;;;;;;;;4138553;34;20175;-59
2021/01/14 10:13:53;;;;;;;9.75;8.40;;;;;;;;;;4127702;34;20122;-58
2021/01/14 10:16:21;;;;;;;13.40;8.13;;;;;;;;;;4150949;34;20103;-58
2021/01/14 10:18:46;;;;;;;10.98;8.55;;;;;;;;;;4151126;34;20118;-58
2021/01/14 10:21:14;;;;;;;11.48;9.15;;;;;;;;;;4150622;34;20483;-59
2021/01/14 10:23:40;;;;;;;11.60;8.52;;;;;;;;;;4151286;34;20091;-58
2021/01/14 10:26:07;;;;;;;14.07;8.95;;;;;;;;;;4161816;34;20198;-59
2021/01/14 10:28:44;;;;;;;11.23;8.38;;;;;;;;;;4164628;34;20110;-55
2021/01/14 10:31:10;;;;;;;11.63;8.82;;;;;;;;;;4164280;34;20099;-58
2021/01/14 10:33:36;;;;;;;10.73;9.15;;;;;;;;;;4151697;34;20170;-59
2021/01/14 10:36:02;;;;;;;12.10;8.57;;;;;;;;;;4164433;34;20499;-54
2021/01/14 10:38:29;;;;;;;10.90;8.15;;;;;;;;;;4164536;34;20115;-59
2021/01/14 10:40:57;;;;;;;10.80;8.98;;;;;;;;;;4164223;34;20091;-59
2021/01/14 10:43:37;;;;;;;12.37;8.45;;;;;;;;;;4164593;34;20174;-59
2021/01/14 10:46:04;;;;;;;11.93;8.20;;;;;;;;;;4164435;34;20126;-60
2021/01/14 10:48:39;;;;;;;10.75;8.05;;;;;;;;;;4151590;34;20558;-57
2021/01/14 10:51:05;;;;;;;10.63;8.43;;;;;;;;;;4164243;34;20091;-59
2021/01/14 10:53:32;;;;;;;9.70;7.93;;;;;;;;;;4164169;34;20103;-57
2021/01/14 10:56:05;;;;;;;9.88;8.32;;;;;;;;;;4164232;34;20122;-54
2021/01/14 10:58:31;;;;;;;12.13;8.73;;;;;;;;;;4164108;34;20122;-59
2021/01/14 11:00:57;;;;;;;10.63;8.70;;;;;;;;;;4164052;34;20150;-59
2021/01/14 11:03:24;;;;;;;11.32;8.68;;;;;;;;;;4164112;34;20456;-59
2021/01/14 11:05:52;;;;;;;13.93;8.45;;;;;;;;;;4164013;34;20099;-58
2021/01/14 11:08:22;;;;;;;11.73;8.50;;;;;;;;;;4164317;34;20107;-60
2021/01/14 11:11:01;;;;;;;12.05;8.45;;;;;;;;;;4164036;34;20645;-57
2021/01/14 11:13:40;;;;;;;10.38;7.45;;;;;;;;;;4162785;34;20099;-57
2021/01/14 11:16:08;;;;;;;11.57;7.70;;;;;;;;;;4163899;34;20100;-58
2021/01/14 11:18:35;;;;;;;11.73;7.87;;;;;;;;;;4163973;34;20130;-58
2021/01/14 11:21:02;;;;;;;9.40;7.75;;;;;;;;;;4163895;34;20080;-56
2021/01/14 11:23:28;;;;;;;9.63;7.25;;;;;;;;;;4163952;34;20111;-56
2021/01/14 11:25:54;;;;;;;10.30;7.87;;;;;;;;;;4155464;34;20091;-57
2021/01/14 11:28:20;;;;;;;12.32;7.72;;;;;;;;;;4150581;34;20111;-57
2021/01/14 11:30:46;;;;;;;11.77;8.30;;;;;;;;;;4150535;34;20523;-61
2021/01/14 11:33:11;;;;;;;9.88;7.62;;;;;;;;;;4150327;34;20111;-58
2021/01/14 11:35:37;;;;;;;11.30;8.13;;;;;;;;;;4150311;34;20546;-58
2021/01/14 11:38:03;;;;;;;10.85;7.90;;;;;;;;;;4150494;34;20194;-59
2021/01/14 11:40:29;;;;;;;10.80;7.72;;;;;;;;;;4150217;34;20471;-58
2021/01/14 11:42:55;;;;;;;9.27;7.78;;;;;;;;;;4150221;34;20204;-58
2021/01/14 11:45:21;;;;;;;11.23;7.43;;;;;;;;;;4137834;34;20146;-56
2021/01/14 11:47:47;;;;;;;10.65;7.60;;;;;;;;;;4150192;34;20449;-57
2021/01/14 11:50:13;;;;;;;11.00;7.72;;;;;;;;;;4149930;34;20178;-57
2021/01/14 11:52:39;;;;;;;12.18;8.20;;;;;;;;;;4150291;34;20520;-57
2021/01/14 11:55:06;;;;;;;10.00;7.95;;;;;;;;;;4149926;34;20208;-58
2021/01/14 11:57:32;;;;;;;10.32;7.55;;;;;;;;;;4137061;34;20155;-58
2021/01/14 11:59:58;;;;;;;11.25;7.78;;;;;;;;;;4149938;34;20265;-57
2021/01/14 12:02:24;;;;;;;12.25;8.40;;;;;;;;;;4149969;34;20107;-57
2021/01/14 12:04:50;;;;;;;11.45;8.35;;;;;;;;;;4148398;34;20182;-51
2021/01/14 12:07:16;;;;;;;13.35;8.40;;;;;;;;;;4150223;34;20191;-52
2021/01/14 12:09:42;;;;;;;13.38;8.35;;;;;;;;;;4150182;34;20127;-53
2021/01/14 12:12:08;;;;;;;12.93;7.68;;;;;;;;;;4149924;34;20111;-51
2021/01/14 12:14:34;;;;;;;10.98;7.87;;;;;;;;;;4149779;34;20558;-61
2021/01/14 12:17:00;;;;;;;13.32;8.43;;;;;;;;;;4150031;34;20228;-59
2021/01/14 12:19:26;;;;;;;9.23;7.10;;;;;;;;;;4149836;34;20544;-54
2021/01/14 12:22:05;;;;;;;11.88;8.00;;;;;;;;;;4149744;34;20477;-58
2021/01/14 12:24:31;;;;;;;13.65;8.68;;;;;;;;;;4149895;34;20114;-57
2021/01/14 12:26:57;;;;;;;13.60;11.48;;;;;;;;;;4149742;34;20137;-55
2021/01/14 12:29:23;;;;;;;12.70;9.20;;;;;;;;;;4149987;34;20114;-58
2021/01/14 12:31:50;;;;;;;15.77;12.15;;;;;;;;;;4149925;34;20392;-58
2021/01/14 12:34:16;;;;;;;17.40;10.68;;;;;;;;;;4151676;34;20206;-58
2021/01/14 12:36:42;;;;;;;15.57;10.90;;;;;;;;;;4151782;34;20095;-58
2021/01/14 12:39:08;;;;;;;13.07;7.97;;;;;;;;;;4151625;34;20115;-58
2021/01/14 12:41:34;;;;;;;13.30;8.68;;;;;;;;;;4151676;34;20125;-58
2021/01/14 12:44:00;;;;;;;10.68;8.38;;;;;;;;;;4151832;34;20123;-58
2021/01/14 12:46:47;;;;;;;12.37;8.02;;;;;;;;;;4151693;34;20186;-55
2021/01/14 12:49:15;;;;;;;10.85;8.35;;;;;;;;;;4151694;34;20586;-57
2021/01/14 12:51:41;;;;;;;15.43;8.25;;;;;;;;;;4151747;34;20088;-55
2021/01/14 12:54:07;;;;;;;12.05;9.00;;;;;;;;;;4151473;34;20099;-58
2021/01/14 12:56:33;;;;;;;13.80;10.07;;;;;;;;;;4151639;34;20103;-55
2021/01/14 12:59:02;;;;;;;17.77;11.20;;;;;;;;;;4151455;34;20107;-55
2021/01/14 13:01:35;;;;;;;17.25;12.75;;;;;;;;;;4151532;34;20527;-57
2021/01/14 13:04:02;;;;;;;13.10;9.32;;;;;;;;;;4151348;34;20111;-59
2021/01/14 13:06:31;;;;;;;10.57;7.97;;;;;;;;;;4151342;34;20123;-54
2021/01/14 13:08:58;;;;;;;11.02;7.28;;;;;;;;;;4151397;34;20146;-57
2021/01/14 13:11:25;;;;;;;10.65;7.03;;;;;;;;;;4151486;34;20123;-53
2021/01/14 13:13:51;;;;;;;13.52;8.32;;;;;;;;;;4151256;34;20100;-55
2021/01/14 13:16:18;;;;;;;11.77;7.55;;;;;;;;;;4151281;34;20103;-53
2021/01/14 13:18:44;;;;;;;12.13;9.07;;;;;;;;;;4151432;34;20127;-55
2021/01/14 13:21:10;;;;;;;13.62;8.35;;;;;;;;;;4151054;34;20123;-54
2021/01/14 13:23:36;;;;;;;15.88;8.90;;;;;;;;;;4151166;34;20103;-57
2021/01/14 13:26:02;;;;;;;14.70;9.30;;;;;;;;;;4151092;34;20099;-57
2021/01/14 13:28:28;;;;;;;14.55;9.13;;;;;;;;;;4127712;34;20210;-56
2021/01/14 13:30:54;;;;;;;14.65;9.02;;;;;;;;;;4151073;34;20118;-55
2021/01/14 13:33:21;;;;;;;15.63;8.40;;;;;;;;;;4151331;34;20118;-56
2021/01/14 13:35:55;;;;;;;16.00;8.43;;;;;;;;;;4151092;34;20558;-53
2021/01/14 13:38:21;;;;;;;12.02;8.02;;;;;;;;;;4151093;34;20620;-58
2021/01/14 13:40:47;;;;;;;10.10;7.25;;;;;;;;;;4150807;34;20139;-56
2021/01/14 13:43:13;;;;;;;12.23;8.38;;;;;;;;;;4150531;34;20119;-52
2021/01/14 13:45:39;;;;;;;12.63;9.40;;;;;;;;;;4150731;34;20313;-51
2021/01/14 13:48:05;;;;;;;13.88;11.02;;;;;;;;;;4151198;34;20108;-59
2021/01/14 13:50:31;;;;;;;20.70;12.73;;;;;;;;;;4150810;34;20110;-53
2021/01/14 13:52:57;;;;;;;21.48;14.07;;;;;;;;;;4150970;34;20103;-55
2021/01/14 13:55:23;;;;;;;14.95;10.85;;;;;;;;;;4150803;34;20115;-53
2021/01/14 13:57:49;;;;;;;11.85;8.65;;;;;;;;;;4150724;34;20231;-58
2021/01/14 14:00:15;;;;;;;9.80;7.72;;;;;;;;;;4150887;34;20123;-59
2021/01/14 14:02:44;;;;;;;14.90;8.00;;;;;;;;;;4150832;34;20110;-59
2021/01/14 14:05:11;;;;;;;14.15;9.18;;;;;;;;;;4150541;34;20099;-58
2021/01/14 14:07:40;;;;;;;11.65;9.43;;;;;;;;;;4150922;34;20114;-60
2021/01/14 14:10:06;;;;;;;15.90;9.95;;;;;;;;;;4150194;34;20115;-58
2021/01/14 14:12:32;;;;;;;14.73;10.15;;;;;;;;;;4150913;34;20103;-58
2021/01/14 14:14:58;;;;;;;18.17;14.10;;;;;;;;;;4150638;34;20472;-58
2021/01/14 14:17:24;;;;;;;19.52;15.32;;;;;;;;;;4150898;34;20229;-58
2021/01/14 14:19:50;;;;;;;20.17;14.20;;;;;;;;;;4150635;34;20537;-59
2021/01/14 14:22:16;;;;;;;18.05;11.05;;;;;;;;;;4150589;34;20119;-59
2021/01/14 14:24:42;;;;;;;15.15;9.95;;;;;;;;;;4150614;34;20231;-58
2021/01/14 14:27:08;;;;;;;12.18;8.65;;;;;;;;;;4150612;34;20476;-58
2021/01/14 14:29:34;;;;;;;12.32;7.93;;;;;;;;;;4150526;34;20096;-59
2021/01/14 14:32:00;;;;;;;12.85;8.27;;;;;;;;;;4150651;34;20129;-55
2021/01/14 14:34:26;;;;;;;11.60;8.43;;;;;;;;;;4150827;34;20106;-54
2021/01/14 14:36:56;;;;;;;12.43;8.15;;;;;;;;;;4150588;34;20115;-53
2021/01/14 14:39:27;;;;;;;13.05;8.60;;;;;;;;;;4150495;34;20111;-54
2021/01/14 14:41:53;;;;;;;13.40;8.85;;;;;;;;;;4150519;34;20456;-52